Terminal Aerodrome Forecast
Issued by NWS

Home | Current Version | Previous Version | Text Only | Print | Product List | Glossary On
Versions: 1 2 3 4 5 6 7 8 9 10 11 12 13
000
FTUS46 KSEW 220500
TAFCLM
TAF
KCLM 220536Z 2206/2306 29006KT P6SM SKC
     FM221300 VRB03KT P6SM BKN012
     FM221700 VRB03KT P6SM SCT025
     FM221900 31008KT P6SM SCT250=

USA.gov is the U.S. government's official web portal to all federal, state and local government web resources and services.